Terminal Aerodrome Forecast
Issued by NWS Chicago, IL

Home | Current Version | Previous Version | Graphics & Text | Print | Product List | Glossary On
Versions: 1 2 3 4 5 6 7 8 9 10 11 12 13 14 15 16 17 18 19 20 21 22 23 24 25
000
FTUS43 KLOT 281728
TAFRFD
TAF
KRFD 281728Z 2818/2918 31012KT P6SM SCT040 BKN100
     FM282000 28012G18KT P6SM VCSH BKN050
     FM282300 28012KT P6SM SCT050
     FM290200 24006KT P6SM SCT050
     FM291400 29012KT P6SM FEW100=

USA.gov is the U.S. government's official web portal to all federal, state and local government web resources and services.